sensor_id;sensor_type;location;lat;lon;timestamp;temperature;humidity
17807;DHT22;9027;48.938;9.182;2022-12-18T00:00:23;-8.40;99.90
17807;DHT22;9027;48.938;9.182;2022-12-18T00:01:58;-8.40;99.90
17807;DHT22;9027;48.938;9.182;2022-12-18T00:03:32;-8.40;99.90
17807;DHT22;9027;48.938;9.182;2022-12-18T00:05:04;-8.50;99.90
17807;DHT22;9027;48.938;9.182;2022-12-18T00:06:36;-8.60;99.90
17807;DHT22;9027;48.938;9.182;2022-12-18T00:08:08;-8.60;99.90
17807;DHT22;9027;48.938;9.182;2022-12-18T00:09:42;-8.60;99.90
17807;DHT22;9027;48.938;9.182;2022-12-18T00:11:16;-8.50;99.90
17807;DHT22;9027;48.938;9.182;2022-12-18T00:12:47;-8.40;99.90
17807;DHT22;9027;48.938;9.182;2022-12-18T00:14:19;-8.40;99.90
17807;DHT22;9027;48.938;9.182;2022-12-18T00:15:51;-8.40;99.90
17807;DHT22;9027;48.938;9.182;2022-12-18T00:17:23;-8.30;99.90
17807;DHT22;9027;48.938;9.182;2022-12-18T00:18:57;-8.20;99.90
17807;DHT22;9027;48.938;9.182;2022-12-18T00:20:30;-8.10;99.90
17807;DHT22;9027;48.938;9.182;2022-12-18T00:22:02;-8.20;99.90
17807;DHT22;9027;48.938;9.182;2022-12-18T00:23:36;-8.20;99.90
17807;DHT22;9027;48.938;9.182;2022-12-18T00:25:10;-8.10;99.90
17807;DHT22;9027;48.938;9.182;2022-12-18T00:26:42;-8.10;99.90
17807;DHT22;9027;48.938;9.182;2022-12-18T00:28:15;-8.00;99.90
17807;DHT22;9027;48.938;9.182;2022-12-18T00:29:48;-8.00;99.90
17807;DHT22;9027;48.938;9.182;2022-12-18T00:31:22;-8.00;99.90
17807;DHT22;9027;48.938;9.182;2022-12-18T00:32:53;-8.10;99.90
17807;DHT22;9027;48.938;9.182;2022-12-18T00:34:25;-8.10;99.90
17807;DHT22;9027;48.938;9.182;2022-12-18T00:36:00;-8.10;99.90
17807;DHT22;9027;48.938;9.182;2022-12-18T00:37:33;-8.10;99.90
17807;DHT22;9027;48.938;9.182;2022-12-18T00:39:05;-8.20;99.90
17807;DHT22;9027;48.938;9.182;2022-12-18T00:40:38;-8.30;99.90
17807;DHT22;9027;48.938;9.182;2022-12-18T00:42:10;-8.40;99.90
17807;DHT22;9027;48.938;9.182;2022-12-18T00:43:59;-8.60;99.90
17807;DHT22;9027;48.938;9.182;2022-12-18T00:45:31;-8.60;99.90
17807;DHT22;9027;48.938;9.182;2022-12-18T00:47:04;-8.70;99.90
17807;DHT22;9027;48.938;9.182;2022-12-18T00:48:36;-8.70;99.90
17807;DHT22;9027;48.938;9.182;2022-12-18T00:50:08;-8.70;99.90
17807;DHT22;9027;48.938;9.182;2022-12-18T00:51:40;-8.60;99.90
17807;DHT22;9027;48.938;9.182;2022-12-18T00:53:12;-8.60;99.90
17807;DHT22;9027;48.938;9.182;2022-12-18T00:54:43;-8.50;99.90
17807;DHT22;9027;48.938;9.182;2022-12-18T00:56:17;-8.50;99.90
17807;DHT22;9027;48.938;9.182;2022-12-18T00:57:50;-8.50;99.90
17807;DHT22;9027;48.938;9.182;2022-12-18T00:59:22;-8.70;99.90
17807;DHT22;9027;48.938;9.182;2022-12-18T01:00:57;-8.90;99.90
17807;DHT22;9027;48.938;9.182;2022-12-18T01:02:37;-8.80;99.90
17807;DHT22;9027;48.938;9.182;2022-12-18T01:04:16;-8.80;99.90
17807;DHT22;9027;48.938;9.182;2022-12-18T01:05:55;-8.90;99.90
17807;DHT22;9027;48.938;9.182;2022-12-18T01:07:33;-8.80;99.90
17807;DHT22;9027;48.938;9.182;2022-12-18T01:09:12;-8.80;99.90
17807;DHT22;9027;48.938;9.182;2022-12-18T01:10:51;-8.70;99.90
17807;DHT22;9027;48.938;9.182;2022-12-18T01:12:30;-8.60;99.90
17807;DHT22;9027;48.938;9.182;2022-12-18T01:14:09;-8.70;99.90
17807;DHT22;9027;48.938;9.182;2022-12-18T01:15:50;-8.60;99.90
17807;DHT22;9027;48.938;9.182;2022-12-18T01:17:28;-8.60;99.90
17807;DHT22;9027;48.938;9.182;2022-12-18T01:19:07;-8.60;99.90
17807;DHT22;9027;48.938;9.182;2022-12-18T01:20:43;-8.50;99.90
17807;DHT22;9027;48.938;9.182;2022-12-18T01:22:17;-8.50;99.90
17807;DHT22;9027;48.938;9.182;2022-12-18T01:23:54;-8.50;99.90
17807;DHT22;9027;48.938;9.182;2022-12-18T01:25:28;-8.50;99.90
17807;DHT22;9027;48.938;9.182;2022-12-18T01:27:02;-8.60;99.90
17807;DHT22;9027;48.938;9.182;2022-12-18T01:28:39;-8.70;99.90
17807;DHT22;9027;48.938;9.182;2022-12-18T01:30:11;-8.70;99.90
17807;DHT22;9027;48.938;9.182;2022-12-18T01:31:43;-8.60;99.90
17807;DHT22;9027;48.938;9.182;2022-12-18T01:33:15;-8.60;99.90
17807;DHT22;9027;48.938;9.182;2022-12-18T01:34:47;-8.60;99.90
17807;DHT22;9027;48.938;9.182;2022-12-18T01:36:19;-8.50;99.90
17807;DHT22;9027;48.938;9.182;2022-12-18T01:37:54;-8.50;99.90
17807;DHT22;9027;48.938;9.182;2022-12-18T01:39:26;-8.50;99.90
17807;DHT22;9027;48.938;9.182;2022-12-18T01:40:58;-8.40;99.90
17807;DHT22;9027;48.938;9.182;2022-12-18T01:42:29;-8.40;99.90
17807;DHT22;9027;48.938;9.182;2022-12-18T01:46:08;-8.30;99.90
17807;DHT22;9027;48.938;9.182;2022-12-18T01:47:41;-8.40;99.90
17807;DHT22;9027;48.938;9.182;2022-12-18T01:49:14;-8.40;99.90
17807;DHT22;9027;48.938;9.182;2022-12-18T01:50:46;-8.40;99.90
17807;DHT22;9027;48.938;9.182;2022-12-18T01:52:21;-8.50;99.90
17807;DHT22;9027;48.938;9.182;2022-12-18T01:53:52;-8.70;99.90
17807;DHT22;9027;48.938;9.182;2022-12-18T01:55:26;-8.90;99.90
17807;DHT22;9027;48.938;9.182;2022-12-18T01:56:59;-9.00;99.90
17807;DHT22;9027;48.938;9.182;2022-12-18T01:58:39;-8.90;99.90
17807;DHT22;9027;48.938;9.182;2022-12-18T02:00:16;-8.80;99.90
17807;DHT22;9027;48.938;9.182;2022-12-18T02:01:50;-8.70;99.90
17807;DHT22;9027;48.938;9.182;2022-12-18T02:03:21;-8.60;99.90
17807;DHT22;9027;48.938;9.182;2022-12-18T02:04:53;-8.50;99.90
17807;DHT22;9027;48.938;9.182;2022-12-18T02:06:29;-8.50;99.90
17807;DHT22;9027;48.938;9.182;2022-12-18T02:08:10;-8.50;99.90
17807;DHT22;9027;48.938;9.182;2022-12-18T02:09:47;-8.60;99.90
17807;DHT22;9027;48.938;9.182;2022-12-18T02:11:26;-8.50;99.90
17807;DHT22;9027;48.938;9.182;2022-12-18T02:13:09;-8.50;99.90
17807;DHT22;9027;48.938;9.182;2022-12-18T02:14:46;-8.40;99.90
17807;DHT22;9027;48.938;9.182;2022-12-18T02:16:24;-8.40;99.90
17807;DHT22;9027;48.938;9.182;2022-12-18T02:18:02;-8.40;99.90
17807;DHT22;9027;48.938;9.182;2022-12-18T02:19:55;-8.30;99.90
17807;DHT22;9027;48.938;9.182;2022-12-18T02:21:40;-8.40;99.90
17807;DHT22;9027;48.938;9.182;2022-12-18T02:23:29;-8.30;99.90
17807;DHT22;9027;48.938;9.182;2022-12-18T02:25:14;-8.30;99.90
17807;DHT22;9027;48.938;9.182;2022-12-18T02:26:56;-8.30;99.90
17807;DHT22;9027;48.938;9.182;2022-12-18T02:28:34;-8.30;99.90
17807;DHT22;9027;48.938;9.182;2022-12-18T02:30:10;-8.50;99.90
17807;DHT22;9027;48.938;9.182;2022-12-18T02:31:46;-8.50;99.90
17807;DHT22;9027;48.938;9.182;2022-12-18T02:33:24;-8.60;99.90
17807;DHT22;9027;48.938;9.182;2022-12-18T02:34:57;-8.60;99.90
17807;DHT22;9027;48.938;9.182;2022-12-18T02:36:32;-8.50;99.90
17807;DHT22;9027;48.938;9.182;2022-12-18T02:38:05;-8.40;99.90
17807;DHT22;9027;48.938;9.182;2022-12-18T02:39:42;-8.30;99.90
17807;DHT22;9027;48.938;9.182;2022-12-18T02:41:17;-8.20;99.90
17807;DHT22;9027;48.938;9.182;2022-12-18T02:42:51;-8.20;99.90
17807;DHT22;9027;48.938;9.182;2022-12-18T02:44:24;-8.20;99.90
17807;DHT22;9027;48.938;9.182;2022-12-18T02:45:58;-8.20;99.90
17807;DHT22;9027;48.938;9.182;2022-12-18T02:47:35;-8.20;99.90
17807;DHT22;9027;48.938;9.182;2022-12-18T02:49:24;-8.10;99.90
17807;DHT22;9027;48.938;9.182;2022-12-18T02:51:04;-8.10;99.90
17807;DHT22;9027;48.938;9.182;2022-12-18T02:52:45;-8.10;99.90
17807;DHT22;9027;48.938;9.182;2022-12-18T02:56:21;-8.20;99.90
17807;DHT22;9027;48.938;9.182;2022-12-18T02:58:03;-8.20;99.90
17807;DHT22;9027;48.938;9.182;2022-12-18T02:59:42;-8.30;99.90
17807;DHT22;9027;48.938;9.182;2022-12-18T03:01:24;-8.30;99.90
17807;DHT22;9027;48.938;9.182;2022-12-18T03:02:59;-8.30;99.90
17807;DHT22;9027;48.938;9.182;2022-12-18T03:04:38;-8.40;99.90
17807;DHT22;9027;48.938;9.182;2022-12-18T03:06:14;-8.30;99.90
17807;DHT22;9027;48.938;9.182;2022-12-18T03:07:53;-8.30;99.90
17807;DHT22;9027;48.938;9.182;2022-12-18T03:09:33;-8.30;99.90
17807;DHT22;9027;48.938;9.182;2022-12-18T03:11:09;-8.20;99.90
17807;DHT22;9027;48.938;9.182;2022-12-18T03:12:45;-8.20;99.90
17807;DHT22;9027;48.938;9.182;2022-12-18T03:14:21;-8.10;99.90
17807;DHT22;9027;48.938;9.182;2022-12-18T03:15:56;-8.10;99.90
17807;DHT22;9027;48.938;9.182;2022-12-18T03:17:30;-8.20;99.90
17807;DHT22;9027;48.938;9.182;2022-12-18T03:19:06;-8.20;99.90
17807;DHT22;9027;48.938;9.182;2022-12-18T03:20:44;-8.20;99.90
17807;DHT22;9027;48.938;9.182;2022-12-18T03:22:18;-8.20;99.90
17807;DHT22;9027;48.938;9.182;2022-12-18T03:23:56;-8.10;99.90
17807;DHT22;9027;48.938;9.182;2022-12-18T03:25:31;-8.10;99.90
17807;DHT22;9027;48.938;9.182;2022-12-18T03:27:07;-8.10;99.90
17807;DHT22;9027;48.938;9.182;2022-12-18T03:28:45;-8.10;99.90
17807;DHT22;9027;48.938;9.182;2022-12-18T03:30:19;-8.00;99.90
17807;DHT22;9027;48.938;9.182;2022-12-18T03:31:53;-8.00;99.90
17807;DHT22;9027;48.938;9.182;2022-12-18T03:33:30;-8.00;99.90
17807;DHT22;9027;48.938;9.182;2022-12-18T03:35:05;-7.90;99.90
17807;DHT22;9027;48.938;9.182;2022-12-18T03:36:40;-7.90;99.90
17807;DHT22;9027;48.938;9.182;2022-12-18T03:38:12;-8.00;99.90
17807;DHT22;9027;48.938;9.182;2022-12-18T03:39:48;-8.00;99.90
17807;DHT22;9027;48.938;9.182;2022-12-18T03:41:29;-8.00;99.90
17807;DHT22;9027;48.938;9.182;2022-12-18T03:43:30;-8.00;99.90
17807;DHT22;9027;48.938;9.182;2022-12-18T03:45:09;-8.00;99.90
17807;DHT22;9027;48.938;9.182;2022-12-18T03:46:49;-8.00;99.90
17807;DHT22;9027;48.938;9.182;2022-12-18T03:48:29;-8.10;99.90
17807;DHT22;9027;48.938;9.182;2022-12-18T03:50:12;-8.10;99.90
17807;DHT22;9027;48.938;9.182;2022-12-18T03:51:51;-8.10;99.90
17807;DHT22;9027;48.938;9.182;2022-12-18T03:53:32;-8.10;99.90
17807;DHT22;9027;48.938;9.182;2022-12-18T03:55:09;-8.00;99.90
17807;DHT22;9027;48.938;9.182;2022-12-18T03:56:45;-8.10;99.90
17807;DHT22;9027;48.938;9.182;2022-12-18T03:58:21;-8.20;99.90
17807;DHT22;9027;48.938;9.182;2022-12-18T04:00:05;-8.20;99.90
17807;DHT22;9027;48.938;9.182;2022-12-18T04:01:49;-8.20;99.90
17807;DHT22;9027;48.938;9.182;2022-12-18T04:03:23;-8.20;99.90
17807;DHT22;9027;48.938;9.182;2022-12-18T04:04:58;-8.20;99.90
17807;DHT22;9027;48.938;9.182;2022-12-18T04:06:31;-8.10;99.90
17807;DHT22;9027;48.938;9.182;2022-12-18T04:08:05;-8.10;99.90
17807;DHT22;9027;48.938;9.182;2022-12-18T04:09:41;-8.10;99.90
17807;DHT22;9027;48.938;9.182;2022-12-18T04:11:17;-8.10;99.90
17807;DHT22;9027;48.938;9.182;2022-12-18T04:12:49;-8.20;99.90
17807;DHT22;9027;48.938;9.182;2022-12-18T04:14:21;-8.30;99.90
17807;DHT22;9027;48.938;9.182;2022-12-18T04:15:57;-8.30;99.90
17807;DHT22;9027;48.938;9.182;2022-12-18T04:17:30;-8.30;99.90
17807;DHT22;9027;48.938;9.182;2022-12-18T04:19:02;-8.30;99.90
17807;DHT22;9027;48.938;9.182;2022-12-18T04:20:39;-8.20;99.90
17807;DHT22;9027;48.938;9.182;2022-12-18T04:22:12;-8.20;99.90
17807;DHT22;9027;48.938;9.182;2022-12-18T04:23:48;-8.20;99.90
17807;DHT22;9027;48.938;9.182;2022-12-18T04:25:22;-8.30;99.90
17807;DHT22;9027;48.938;9.182;2022-12-18T04:27:03;-8.30;99.90
17807;DHT22;9027;48.938;9.182;2022-12-18T04:28:39;-8.40;99.90
17807;DHT22;9027;48.938;9.182;2022-12-18T04:30:12;-8.40;99.90
17807;DHT22;9027;48.938;9.182;2022-12-18T04:31:43;-8.40;99.90
17807;DHT22;9027;48.938;9.182;2022-12-18T04:33:16;-8.40;99.90
17807;DHT22;9027;48.938;9.182;2022-12-18T04:34:49;-8.40;99.90
17807;DHT22;9027;48.938;9.182;2022-12-18T04:36:21;-8.50;99.90
17807;DHT22;9027;48.938;9.182;2022-12-18T04:37:53;-8.50;99.90
17807;DHT22;9027;48.938;9.182;2022-12-18T04:39:25;-8.50;99.90
17807;DHT22;9027;48.938;9.182;2022-12-18T04:41:00;-8.50;99.90
17807;DHT22;9027;48.938;9.182;2022-12-18T04:42:32;-8.40;99.90
17807;DHT22;9027;48.938;9.182;2022-12-18T04:44:04;-8.40;99.90
17807;DHT22;9027;48.938;9.182;2022-12-18T04:45:36;-8.40;99.90
17807;DHT22;9027;48.938;9.182;2022-12-18T04:47:07;-8.40;99.90
17807;DHT22;9027;48.938;9.182;2022-12-18T04:48:40;-8.40;99.90
17807;DHT22;9027;48.938;9.182;2022-12-18T04:50:11;-8.40;99.90
17807;DHT22;9027;48.938;9.182;2022-12-18T04:51:43;-8.40;99.90
17807;DHT22;9027;48.938;9.182;2022-12-18T04:53:15;-8.50;99.90
17807;DHT22;9027;48.938;9.182;2022-12-18T04:54:46;-8.60;99.90
17807;DHT22;9027;48.938;9.182;2022-12-18T04:56:18;-8.60;99.90
17807;DHT22;9027;48.938;9.182;2022-12-18T04:57:50;-8.60;99.90
17807;DHT22;9027;48.938;9.182;2022-12-18T04:59:21;-8.80;99.90
17807;DHT22;9027;48.938;9.182;2022-12-18T05:00:53;-8.70;99.90
17807;DHT22;9027;48.938;9.182;2022-12-18T05:02:24;-8.60;99.90
17807;DHT22;9027;48.938;9.182;2022-12-18T05:03:57;-8.60;99.90
17807;DHT22;9027;48.938;9.182;2022-12-18T05:05:29;-8.50;99.90
17807;DHT22;9027;48.938;9.182;2022-12-18T05:07:00;-8.50;99.90
17807;DHT22;9027;48.938;9.182;2022-12-18T05:08:33;-8.60;99.90
17807;DHT22;9027;48.938;9.182;2022-12-18T05:10:05;-8.50;99.90
17807;DHT22;9027;48.938;9.182;2022-12-18T05:11:38;-8.50;99.90
17807;DHT22;9027;48.938;9.182;2022-12-18T05:13:10;-8.50;99.90
17807;DHT22;9027;48.938;9.182;2022-12-18T05:14:42;-8.50;99.90
17807;DHT22;9027;48.938;9.182;2022-12-18T05:16:14;-8.50;99.90
17807;DHT22;9027;48.938;9.182;2022-12-18T05:17:45;-8.40;99.90
17807;DHT22;9027;48.938;9.182;2022-12-18T05:19:19;-8.40;99.90
17807;DHT22;9027;48.938;9.182;2022-12-18T05:20:51;-8.30;99.90
17807;DHT22;9027;48.938;9.182;2022-12-18T05:22:22;-8.20;99.90
17807;DHT22;9027;48.938;9.182;2022-12-18T05:23:55;-8.20;99.90
17807;DHT22;9027;48.938;9.182;2022-12-18T05:25:27;-8.20;99.90
17807;DHT22;9027;48.938;9.182;2022-12-18T05:26:59;-8.10;99.90
17807;DHT22;9027;48.938;9.182;2022-12-18T05:28:32;-8.10;99.90
17807;DHT22;9027;48.938;9.182;2022-12-18T05:30:05;-8.10;99.90
17807;DHT22;9027;48.938;9.182;2022-12-18T05:31:37;-8.10;99.90
17807;DHT22;9027;48.938;9.182;2022-12-18T05:33:09;-8.10;99.90
17807;DHT22;9027;48.938;9.182;2022-12-18T05:34:42;-8.20;99.90
17807;DHT22;9027;48.938;9.182;2022-12-18T05:36:14;-8.30;99.90
17807;DHT22;9027;48.938;9.182;2022-12-18T05:37:46;-8.40;99.90
17807;DHT22;9027;48.938;9.182;2022-12-18T05:39:18;-8.40;99.90
17807;DHT22;9027;48.938;9.182;2022-12-18T05:40:50;-8.60;99.90
17807;DHT22;9027;48.938;9.182;2022-12-18T05:42:22;-8.70;99.90
17807;DHT22;9027;48.938;9.182;2022-12-18T05:43:53;-8.70;99.90
17807;DHT22;9027;48.938;9.182;2022-12-18T05:45:25;-8.80;99.90
17807;DHT22;9027;48.938;9.182;2022-12-18T05:46:56;-8.70;99.90
17807;DHT22;9027;48.938;9.182;2022-12-18T05:48:28;-8.70;99.90
17807;DHT22;9027;48.938;9.182;2022-12-18T05:50:01;-8.70;99.90
17807;DHT22;9027;48.938;9.182;2022-12-18T05:51:33;-8.70;99.90
17807;DHT22;9027;48.938;9.182;2022-12-18T05:53:06;-8.70;99.90
17807;DHT22;9027;48.938;9.182;2022-12-18T05:54:37;-8.80;99.90
17807;DHT22;9027;48.938;9.182;2022-12-18T05:56:11;-8.70;99.90
17807;DHT22;9027;48.938;9.182;2022-12-18T05:57:43;-8.70;99.90
17807;DHT22;9027;48.938;9.182;2022-12-18T05:59:14;-8.60;99.90
17807;DHT22;9027;48.938;9.182;2022-12-18T06:00:46;-8.60;99.90
17807;DHT22;9027;48.938;9.182;2022-12-18T06:02:17;-8.60;99.90
17807;DHT22;9027;48.938;9.182;2022-12-18T06:03:51;-8.70;99.90
17807;DHT22;9027;48.938;9.182;2022-12-18T06:05:24;-8.70;99.90
17807;DHT22;9027;48.938;9.182;2022-12-18T06:06:55;-8.70;99.90
17807;DHT22;9027;48.938;9.182;2022-12-18T06:08:27;-8.80;99.90
17807;DHT22;9027;48.938;9.182;2022-12-18T06:09:59;-8.80;99.90
17807;DHT22;9027;48.938;9.182;2022-12-18T06:11:30;-8.80;99.90
17807;DHT22;9027;48.938;9.182;2022-12-18T06:13:03;-8.90;99.90
17807;DHT22;9027;48.938;9.182;2022-12-18T06:14:35;-8.80;99.90
17807;DHT22;9027;48.938;9.182;2022-12-18T06:16:07;-8.90;99.90
17807;DHT22;9027;48.938;9.182;2022-12-18T06:17:39;-8.90;99.90
17807;DHT22;9027;48.938;9.182;2022-12-18T06:19:14;-8.80;99.90
17807;DHT22;9027;48.938;9.182;2022-12-18T06:20:55;-8.70;99.90
17807;DHT22;9027;48.938;9.182;2022-12-18T06:22:27;-8.70;99.90
17807;DHT22;9027;48.938;9.182;2022-12-18T06:24:00;-8.60;99.90
17807;DHT22;9027;48.938;9.182;2022-12-18T06:25:32;-8.60;99.90
17807;DHT22;9027;48.938;9.182;2022-12-18T06:27:03;-8.50;99.90
17807;DHT22;9027;48.938;9.182;2022-12-18T06:28:35;-8.50;99.90
17807;DHT22;9027;48.938;9.182;2022-12-18T06:30:08;-8.50;99.90
17807;DHT22;9027;48.938;9.182;2022-12-18T06:31:39;-8.60;99.90
17807;DHT22;9027;48.938;9.182;2022-12-18T06:33:11;-8.60;99.90
17807;DHT22;9027;48.938;9.182;2022-12-18T06:34:43;-8.60;99.90
17807;DHT22;9027;48.938;9.182;2022-12-18T06:36:17;-8.60;99.90
17807;DHT22;9027;48.938;9.182;2022-12-18T06:37:50;-8.60;99.90
17807;DHT22;9027;48.938;9.182;2022-12-18T06:39:22;-8.70;99.90
17807;DHT22;9027;48.938;9.182;2022-12-18T06:40:54;-8.70;99.90
17807;DHT22;9027;48.938;9.182;2022-12-18T06:42:25;-8.70;99.90
17807;DHT22;9027;48.938;9.182;2022-12-18T06:43:57;-8.70;99.90
17807;DHT22;9027;48.938;9.182;2022-12-18T06:45:29;-8.70;99.90
17807;DHT22;9027;48.938;9.182;2022-12-18T06:47:01;-8.70;99.90
17807;DHT22;9027;48.938;9.182;2022-12-18T06:48:33;-8.70;99.90
17807;DHT22;9027;48.938;9.182;2022-12-18T06:50:06;-8.70;99.90
17807;DHT22;9027;48.938;9.182;2022-12-18T06:51:40;-8.70;99.90
17807;DHT22;9027;48.938;9.182;2022-12-18T06:53:12;-8.70;99.90
17807;DHT22;9027;48.938;9.182;2022-12-18T06:54:43;-8.70;99.90
17807;DHT22;9027;48.938;9.182;2022-12-18T06:56:15;-8.60;99.90
17807;DHT22;9027;48.938;9.182;2022-12-18T06:57:47;-8.60;99.90
17807;DHT22;9027;48.938;9.182;2022-12-18T06:59:19;-8.70;99.90
17807;DHT22;9027;48.938;9.182;2022-12-18T07:00:51;-8.70;99.90
17807;DHT22;9027;48.938;9.182;2022-12-18T07:02:23;-8.70;99.90
17807;DHT22;9027;48.938;9.182;2022-12-18T07:03:56;-8.70;99.90
17807;DHT22;9027;48.938;9.182;2022-12-18T07:05:28;-8.70;99.90
17807;DHT22;9027;48.938;9.182;2022-12-18T07:07:01;-8.70;99.90
17807;DHT22;9027;48.938;9.182;2022-12-18T07:08:33;-8.70;99.90
17807;DHT22;9027;48.938;9.182;2022-12-18T07:10:05;-8.70;99.90
17807;DHT22;9027;48.938;9.182;2022-12-18T07:11:37;-8.70;99.90
17807;DHT22;9027;48.938;9.182;2022-12-18T07:13:09;-8.70;99.90
17807;DHT22;9027;48.938;9.182;2022-12-18T07:14:41;-8.70;99.90
17807;DHT22;9027;48.938;9.182;2022-12-18T07:16:15;-8.70;99.90
17807;DHT22;9027;48.938;9.182;2022-12-18T07:17:47;-8.70;99.90
17807;DHT22;9027;48.938;9.182;2022-12-18T07:19:19;-8.80;99.90
17807;DHT22;9027;48.938;9.182;2022-12-18T07:20:53;-8.70;99.90
17807;DHT22;9027;48.938;9.182;2022-12-18T07:22:27;-8.70;99.90
17807;DHT22;9027;48.938;9.182;2022-12-18T07:23:59;-8.70;99.90
17807;DHT22;9027;48.938;9.182;2022-12-18T07:25:33;-8.70;99.90
17807;DHT22;9027;48.938;9.182;2022-12-18T07:27:05;-8.80;99.90
17807;DHT22;9027;48.938;9.182;2022-12-18T07:28:38;-8.70;99.90
17807;DHT22;9027;48.938;9.182;2022-12-18T07:30:11;-8.60;99.90
17807;DHT22;9027;48.938;9.182;2022-12-18T07:31:43;-8.60;99.90
17807;DHT22;9027;48.938;9.182;2022-12-18T07:33:16;-8.60;99.90
17807;DHT22;9027;48.938;9.182;2022-12-18T07:34:48;-8.60;99.90
17807;DHT22;9027;48.938;9.182;2022-12-18T07:36:24;-8.60;99.90
17807;DHT22;9027;48.938;9.182;2022-12-18T07:37:57;-8.60;99.90
17807;DHT22;9027;48.938;9.182;2022-12-18T07:39:29;-8.60;99.90
17807;DHT22;9027;48.938;9.182;2022-12-18T07:41:02;-8.50;99.90
17807;DHT22;9027;48.938;9.182;2022-12-18T07:42:34;-8.40;99.90
17807;DHT22;9027;48.938;9.182;2022-12-18T07:44:09;-8.40;99.90
17807;DHT22;9027;48.938;9.182;2022-12-18T07:45:40;-8.30;99.90
17807;DHT22;9027;48.938;9.182;2022-12-18T07:47:12;-8.20;99.90
17807;DHT22;9027;48.938;9.182;2022-12-18T07:48:44;-8.20;99.90
17807;DHT22;9027;48.938;9.182;2022-12-18T07:50:16;-8.10;99.90
17807;DHT22;9027;48.938;9.182;2022-12-18T07:51:48;-8.00;99.90
17807;DHT22;9027;48.938;9.182;2022-12-18T07:53:21;-8.00;99.90
17807;DHT22;9027;48.938;9.182;2022-12-18T07:54:53;-7.90;99.90
17807;DHT22;9027;48.938;9.182;2022-12-18T07:56:26;-7.90;99.90
17807;DHT22;9027;48.938;9.182;2022-12-18T07:58:01;-7.80;99.90
17807;DHT22;9027;48.938;9.182;2022-12-18T07:59:33;-7.80;99.90
17807;DHT22;9027;48.938;9.182;2022-12-18T08:01:07;-7.70;99.90
17807;DHT22;9027;48.938;9.182;2022-12-18T08:02:39;-7.60;99.90
17807;DHT22;9027;48.938;9.182;2022-12-18T08:04:11;-7.50;99.90
17807;DHT22;9027;48.938;9.182;2022-12-18T08:05:43;-7.40;99.90
17807;DHT22;9027;48.938;9.182;2022-12-18T08:07:15;-7.40;99.90
17807;DHT22;9027;48.938;9.182;2022-12-18T08:08:48;-7.30;99.90
17807;DHT22;9027;48.938;9.182;2022-12-18T08:10:20;-7.20;99.90
17807;DHT22;9027;48.938;9.182;2022-12-18T08:11:52;-6.90;99.90
17807;DHT22;9027;48.938;9.182;2022-12-18T08:13:25;-6.50;99.90
17807;DHT22;9027;48.938;9.182;2022-12-18T08:14:57;-6.00;99.90
17807;DHT22;9027;48.938;9.182;2022-12-18T08:16:29;-5.40;99.90
17807;DHT22;9027;48.938;9.182;2022-12-18T08:18:01;-4.70;99.90
17807;DHT22;9027;48.938;9.182;2022-12-18T08:19:33;-4.00;99.90
17807;DHT22;9027;48.938;9.182;2022-12-18T08:21:08;-3.60;99.90
17807;DHT22;9027;48.938;9.182;2022-12-18T08:22:41;-3.00;99.90
17807;DHT22;9027;48.938;9.182;2022-12-18T08:24:14;-2.40;99.90
17807;DHT22;9027;48.938;9.182;2022-12-18T08:25:46;-1.80;99.90
17807;DHT22;9027;48.938;9.182;2022-12-18T08:27:18;-1.20;99.90
17807;DHT22;9027;48.938;9.182;2022-12-18T08:28:50;-0.70;99.90
17807;DHT22;9027;48.938;9.182;2022-12-18T08:30:22;-0.20;99.90
17807;DHT22;9027;48.938;9.182;2022-12-18T08:31:53;0.30;99.90
17807;DHT22;9027;48.938;9.182;2022-12-18T08:33:26;0.60;99.90
17807;DHT22;9027;48.938;9.182;2022-12-18T08:34:58;1.00;99.90
17807;DHT22;9027;48.938;9.182;2022-12-18T08:36:30;1.40;99.90
17807;DHT22;9027;48.938;9.182;2022-12-18T08:38:01;1.80;99.90
17807;DHT22;9027;48.938;9.182;2022-12-18T08:39:35;2.10;99.90
17807;DHT22;9027;48.938;9.182;2022-12-18T08:41:08;2.50;99.90
17807;DHT22;9027;48.938;9.182;2022-12-18T08:42:41;2.90;99.90
17807;DHT22;9027;48.938;9.182;2022-12-18T08:44:30;3.30;99.90
17807;DHT22;9027;48.938;9.182;2022-12-18T08:46:10;3.70;99.90
17807;DHT22;9027;48.938;9.182;2022-12-18T08:47:41;4.20;99.70
17807;DHT22;9027;48.938;9.182;2022-12-18T08:49:13;4.40;99.10
17807;DHT22;9027;48.938;9.182;2022-12-18T08:50:53;4.60;98.10
17807;DHT22;9027;48.938;9.182;2022-12-18T08:52:25;4.90;98.10
17807;DHT22;9027;48.938;9.182;2022-12-18T08:53:58;5.30;98.80
17807;DHT22;9027;48.938;9.182;2022-12-18T08:55:32;5.80;96.10
17807;DHT22;9027;48.938;9.182;2022-12-18T08:57:04;6.30;94.60
17807;DHT22;9027;48.938;9.182;2022-12-18T08:58:36;6.40;93.30
17807;DHT22;9027;48.938;9.182;2022-12-18T09:00:09;6.40;92.50
17807;DHT22;9027;48.938;9.182;2022-12-18T09:01:45;6.50;92.90
17807;DHT22;9027;48.938;9.182;2022-12-18T09:03:18;6.80;91.90
17807;DHT22;9027;48.938;9.182;2022-12-18T09:04:52;7.10;91.20
17807;DHT22;9027;48.938;9.182;2022-12-18T09:06:24;7.40;93.50
17807;DHT22;9027;48.938;9.182;2022-12-18T09:07:57;7.90;90.60
17807;DHT22;9027;48.938;9.182;2022-12-18T09:09:28;8.20;88.60
17807;DHT22;9027;48.938;9.182;2022-12-18T09:11:02;8.40;85.90
17807;DHT22;9027;48.938;9.182;2022-12-18T09:12:34;8.60;85.00
17807;DHT22;9027;48.938;9.182;2022-12-18T09:14:06;9.00;84.00
17807;DHT22;9027;48.938;9.182;2022-12-18T09:15:41;9.40;84.40
17807;DHT22;9027;48.938;9.182;2022-12-18T09:17:13;9.30;82.10
17807;DHT22;9027;48.938;9.182;2022-12-18T09:18:45;9.50;81.50
17807;DHT22;9027;48.938;9.182;2022-12-18T09:20:18;9.70;81.20
17807;DHT22;9027;48.938;9.182;2022-12-18T09:21:50;9.90;79.80
17807;DHT22;9027;48.938;9.182;2022-12-18T09:23:22;10.00;77.70
17807;DHT22;9027;48.938;9.182;2022-12-18T09:24:54;9.90;77.10
17807;DHT22;9027;48.938;9.182;2022-12-18T09:26:27;9.90;77.80
17807;DHT22;9027;48.938;9.182;2022-12-18T09:27:59;10.10;79.00
17807;DHT22;9027;48.938;9.182;2022-12-18T09:29:32;10.40;75.90
17807;DHT22;9027;48.938;9.182;2022-12-18T09:31:06;10.50;74.80
17807;DHT22;9027;48.938;9.182;2022-12-18T09:32:38;10.70;75.00
17807;DHT22;9027;48.938;9.182;2022-12-18T09:34:10;10.90;73.70
17807;DHT22;9027;48.938;9.182;2022-12-18T09:35:44;10.50;74.10
17807;DHT22;9027;48.938;9.182;2022-12-18T09:37:16;10.10;74.40
17807;DHT22;9027;48.938;9.182;2022-12-18T09:38:48;10.30;75.70
17807;DHT22;9027;48.938;9.182;2022-12-18T09:40:21;10.60;75.60
17807;DHT22;9027;48.938;9.182;2022-12-18T09:41:57;10.70;75.20
17807;DHT22;9027;48.938;9.182;2022-12-18T09:43:36;11.20;73.20
17807;DHT22;9027;48.938;9.182;2022-12-18T09:45:13;11.50;72.80
17807;DHT22;9027;48.938;9.182;2022-12-18T09:46:49;11.80;71.10
17807;DHT22;9027;48.938;9.182;2022-12-18T09:48:26;10.20;72.80
17807;DHT22;9027;48.938;9.182;2022-12-18T09:50:03;8.30;78.10
17807;DHT22;9027;48.938;9.182;2022-12-18T09:51:39;5.90;83.10
17807;DHT22;9027;48.938;9.182;2022-12-18T09:53:16;5.10;89.40
17807;DHT22;9027;48.938;9.182;2022-12-18T09:54:53;5.00;90.70
17807;DHT22;9027;48.938;9.182;2022-12-18T09:56:28;5.00;92.10
17807;DHT22;9027;48.938;9.182;2022-12-18T09:58:12;4.20;91.90
17807;DHT22;9027;48.938;9.182;2022-12-18T09:59:50;4.40;93.80
17807;DHT22;9027;48.938;9.182;2022-12-18T10:01:24;5.20;92.70
17807;DHT22;9027;48.938;9.182;2022-12-18T10:03:00;5.50;92.70
17807;DHT22;9027;48.938;9.182;2022-12-18T10:04:33;5.70;91.70
17807;DHT22;9027;48.938;9.182;2022-12-18T10:06:10;6.00;92.20
17807;DHT22;9027;48.938;9.182;2022-12-18T10:07:53;5.90;91.60
17807;DHT22;9027;48.938;9.182;2022-12-18T10:09:30;5.90;92.40